CheckWX is a tool to help pilots better visualize weather data.  It is not intended as a substitute for an official pre-flight weather briefing.

13:34:40 UTC

NFTF TAF
Fua'amotu International Airport
Nuku'alofa, Tonga
TAF NFTF 241126Z 2412/2512 10014KT 9999 -RA SCT008 BKN017 OVC100 TEMPO 2412/2420 10015G30KT 5000 RA SCT008 BKN015 PROB40 2420/2424 11015G25KT 5000 RA BKN008 BKN015 PROB30 2500/2509 5000 SHRA BKN015

May-24@
12:00 UTC

May-24 @ 12:00 UTC

May-25@
12:00 UTC

May-25 @ 12:00 UTC

TAF NFTF 241126Z 2412/2512 10014KT 9999 -RA SCT008 BKN017 OVC100
Wind
  • 100° at 14 KTS
Conditions
Light Rain
Cloud Levels
  • Scattered at 800' AGL
  • Broken at 1,700' AGL
  • Overcast at 10,000' AGL

May-24@
12:00 UTC

May-24 @ 12:00 UTC

May-24@
20:00 UTC

May-24 @ 20:00 UTC

TEMPO 2412/2420 10015G30KT 5000 RA SCT008 BKN015

Temporary

Temporary Changes expected for less than half the time period

Wind
  • 100° at 15 KTS
  • {Gusting to 30 KTS
Conditions
Rain
Cloud Levels
  • Scattered at 800' AGL
  • Broken at 1,500' AGL

May-24@
20:00 UTC

May-24 @ 20:00 UTC

May-25@
00:00 UTC

May-25 @ 00:00 UTC

PROB40 2420/2424 11015G25KT 5000 RA BKN008 BKN015

Probable - 40% Likelihood

Probable - 40% Likelihood during this time.

Wind
  • 110° at 15 KTS
  • {Gusting to 25 KTS
Conditions
Rain
Cloud Levels
  • Broken at 800' AGL
  • Broken at 1,500' AGL

May-25@
00:00 UTC

May-25 @ 00:00 UTC

May-25@
09:00 UTC

May-25 @ 09:00 UTC

PROB30 2500/2509 5000 SHRA BKN015

Probable - 30% Likelihood

Probable - 30% Likelihood during this time.

Conditions
Rain
Cloud Levels
  • Broken at 1,500' AGL